Terminal Aerodrome Forecast
Issued by NWS

Home | Current Version | Previous Version | Graphics & Text | Print | Product List | Glossary Off
Versions: 1 2 3 4 5 6 7 8 9 10 11 12 13 14 15 16 17

000
FTUS43 KDDC 180500 RRA
TAFHYS
TAF
KHYS 180540Z 1806/1906 14007KT P6SM SKC
     FM180800 19010KT P6SM BKN025
     FM181500 18020G30KT P6SM SCT250
     FM190200 17015KT P6SM SKC=

USA.gov is the U.S. government's official web portal to all federal, state and local government web resources and services.